sensor_id;sensor_type;location;lat;lon;timestamp;P1;durP1;ratioP1;P2;durP2;ratioP2
58950;SDS011;44730;53.158;6.398;2022-08-18T00:02:04;7.88;;;4.10;;
58950;SDS011;44730;53.158;6.398;2022-08-18T00:04:32;10.50;;;4.80;;
58950;SDS011;44730;53.158;6.398;2022-08-18T00:07:07;8.13;;;4.60;;
58950;SDS011;44730;53.158;6.398;2022-08-18T00:09:35;15.65;;;4.82;;
58950;SDS011;44730;53.158;6.398;2022-08-18T00:12:04;9.50;;;4.55;;
58950;SDS011;44730;53.158;6.398;2022-08-18T00:14:44;12.73;;;5.13;;
58950;SDS011;44730;53.158;6.398;2022-08-18T00:17:11;9.65;;;4.68;;
58950;SDS011;44730;53.158;6.398;2022-08-18T00:19:37;11.45;;;5.10;;
58950;SDS011;44730;53.158;6.398;2022-08-18T00:22:04;10.77;;;5.00;;
58950;SDS011;44730;53.158;6.398;2022-08-18T00:24:30;9.05;;;4.55;;
58950;SDS011;44730;53.158;6.398;2022-08-18T00:26:56;10.35;;;4.93;;
58950;SDS011;44730;53.158;6.398;2022-08-18T00:29:22;9.80;;;4.65;;
58950;SDS011;44730;53.158;6.398;2022-08-18T00:31:49;8.63;;;4.70;;
58950;SDS011;44730;53.158;6.398;2022-08-18T00:34:15;10.73;;;5.22;;
58950;SDS011;44730;53.158;6.398;2022-08-18T00:36:41;10.38;;;5.18;;
58950;SDS011;44730;53.158;6.398;2022-08-18T00:39:08;8.82;;;5.63;;
58950;SDS011;44730;53.158;6.398;2022-08-18T00:41:34;7.78;;;4.88;;
58950;SDS011;44730;53.158;6.398;2022-08-18T00:44:00;14.57;;;5.45;;
58950;SDS011;44730;53.158;6.398;2022-08-18T00:46:30;12.85;;;5.70;;
58950;SDS011;44730;53.158;6.398;2022-08-18T00:48:59;12.20;;;5.43;;
58950;SDS011;44730;53.158;6.398;2022-08-18T00:56:41;15.27;;;6.28;;
58950;SDS011;44730;53.158;6.398;2022-08-18T00:59:22;8.43;;;5.22;;
58950;SDS011;44730;53.158;6.398;2022-08-18T01:01:58;8.85;;;5.40;;
58950;SDS011;44730;53.158;6.398;2022-08-18T01:04:29;8.45;;;5.40;;
58950;SDS011;44730;53.158;6.398;2022-08-18T01:07:01;10.27;;;5.82;;
58950;SDS011;44730;53.158;6.398;2022-08-18T01:09:32;10.32;;;5.47;;
58950;SDS011;44730;53.158;6.398;2022-08-18T01:11:58;10.02;;;5.35;;
58950;SDS011;44730;53.158;6.398;2022-08-18T01:14:23;9.35;;;5.80;;
58950;SDS011;44730;53.158;6.398;2022-08-18T01:16:50;12.07;;;5.82;;
58950;SDS011;44730;53.158;6.398;2022-08-18T01:24:53;8.77;;;5.38;;
58950;SDS011;44730;53.158;6.398;2022-08-18T01:27:41;11.45;;;5.43;;
58950;SDS011;44730;53.158;6.398;2022-08-18T01:30:08;12.18;;;5.95;;
58950;SDS011;44730;53.158;6.398;2022-08-18T01:32:39;16.38;;;6.07;;
58950;SDS011;44730;53.158;6.398;2022-08-18T01:35:09;7.75;;;5.05;;
58950;SDS011;44730;53.158;6.398;2022-08-18T01:37:37;9.90;;;5.55;;
58950;SDS011;44730;53.158;6.398;2022-08-18T01:40:05;12.18;;;5.85;;
58950;SDS011;44730;53.158;6.398;2022-08-18T01:42:33;11.43;;;5.15;;
58950;SDS011;44730;53.158;6.398;2022-08-18T01:45:00;8.45;;;5.85;;
58950;SDS011;44730;53.158;6.398;2022-08-18T01:47:28;23.63;;;6.50;;
58950;SDS011;44730;53.158;6.398;2022-08-18T01:49:55;10.45;;;6.60;;
58950;SDS011;44730;53.158;6.398;2022-08-18T01:52:22;13.50;;;6.45;;
58950;SDS011;44730;53.158;6.398;2022-08-18T01:54:49;10.15;;;6.47;;
58950;SDS011;44730;53.158;6.398;2022-08-18T01:57:16;8.90;;;5.80;;
58950;SDS011;44730;53.158;6.398;2022-08-18T01:59:43;7.88;;;5.93;;
58950;SDS011;44730;53.158;6.398;2022-08-18T02:02:09;10.27;;;6.07;;
58950;SDS011;44730;53.158;6.398;2022-08-18T02:04:40;11.38;;;6.45;;
58950;SDS011;44730;53.158;6.398;2022-08-18T02:07:07;11.45;;;6.03;;
58950;SDS011;44730;53.158;6.398;2022-08-18T02:09:35;14.40;;;6.60;;
58950;SDS011;44730;53.158;6.398;2022-08-18T02:12:02;10.98;;;6.85;;
58950;SDS011;44730;53.158;6.398;2022-08-18T02:14:29;9.82;;;6.05;;
58950;SDS011;44730;53.158;6.398;2022-08-18T02:16:56;10.13;;;5.20;;
58950;SDS011;44730;53.158;6.398;2022-08-18T02:19:22;11.65;;;6.43;;
58950;SDS011;44730;53.158;6.398;2022-08-18T02:21:49;8.73;;;5.40;;
58950;SDS011;44730;53.158;6.398;2022-08-18T02:24:16;11.68;;;6.15;;
58950;SDS011;44730;53.158;6.398;2022-08-18T02:26:43;9.23;;;5.97;;
58950;SDS011;44730;53.158;6.398;2022-08-18T02:29:09;11.95;;;6.28;;
58950;SDS011;44730;53.158;6.398;2022-08-18T02:31:35;11.93;;;6.65;;
58950;SDS011;44730;53.158;6.398;2022-08-18T02:34:00;12.13;;;6.57;;
58950;SDS011;44730;53.158;6.398;2022-08-18T02:36:26;12.18;;;6.95;;
58950;SDS011;44730;53.158;6.398;2022-08-18T02:38:52;9.70;;;6.57;;
58950;SDS011;44730;53.158;6.398;2022-08-18T02:41:18;15.32;;;6.85;;
58950;SDS011;44730;53.158;6.398;2022-08-18T02:43:45;13.70;;;7.07;;
58950;SDS011;44730;53.158;6.398;2022-08-18T02:46:12;11.98;;;6.80;;
58950;SDS011;44730;53.158;6.398;2022-08-18T02:48:38;11.75;;;6.50;;
58950;SDS011;44730;53.158;6.398;2022-08-18T02:51:08;10.35;;;6.53;;
58950;SDS011;44730;53.158;6.398;2022-08-18T02:53:37;11.02;;;6.25;;
58950;SDS011;44730;53.158;6.398;2022-08-18T02:56:05;13.13;;;6.80;;
58950;SDS011;44730;53.158;6.398;2022-08-18T02:59:02;12.18;;;7.55;;
58950;SDS011;44730;53.158;6.398;2022-08-18T03:01:30;13.18;;;7.57;;
58950;SDS011;44730;53.158;6.398;2022-08-18T03:03:58;10.77;;;6.60;;
58950;SDS011;44730;53.158;6.398;2022-08-18T03:06:25;10.57;;;6.75;;
58950;SDS011;44730;53.158;6.398;2022-08-18T03:08:53;13.88;;;7.20;;
58950;SDS011;44730;53.158;6.398;2022-08-18T03:11:21;10.88;;;6.80;;
58950;SDS011;44730;53.158;6.398;2022-08-18T03:13:52;14.88;;;7.18;;
58950;SDS011;44730;53.158;6.398;2022-08-18T03:16:19;15.55;;;8.25;;
58950;SDS011;44730;53.158;6.398;2022-08-18T03:18:45;12.25;;;7.50;;
58950;SDS011;44730;53.158;6.398;2022-08-18T03:21:14;11.50;;;6.72;;
58950;SDS011;44730;53.158;6.398;2022-08-18T03:23:48;9.77;;;7.20;;
58950;SDS011;44730;53.158;6.398;2022-08-18T03:26:16;17.67;;;7.80;;
58950;SDS011;44730;53.158;6.398;2022-08-18T03:28:44;11.57;;;7.45;;
58950;SDS011;44730;53.158;6.398;2022-08-18T03:31:12;11.43;;;7.00;;
58950;SDS011;44730;53.158;6.398;2022-08-18T03:33:39;12.52;;;6.43;;
58950;SDS011;44730;53.158;6.398;2022-08-18T03:36:10;11.30;;;6.85;;
58950;SDS011;44730;53.158;6.398;2022-08-18T03:38:40;12.27;;;7.10;;
58950;SDS011;44730;53.158;6.398;2022-08-18T03:41:07;12.50;;;6.50;;
58950;SDS011;44730;53.158;6.398;2022-08-18T03:43:35;10.35;;;7.13;;
58950;SDS011;44730;53.158;6.398;2022-08-18T03:46:03;10.35;;;7.25;;
58950;SDS011;44730;53.158;6.398;2022-08-18T03:48:30;12.35;;;7.50;;
58950;SDS011;44730;53.158;6.398;2022-08-18T03:51:12;12.65;;;7.38;;
58950;SDS011;44730;53.158;6.398;2022-08-18T03:53:43;11.70;;;7.90;;
58950;SDS011;44730;53.158;6.398;2022-08-18T03:56:11;10.90;;;7.50;;
58950;SDS011;44730;53.158;6.398;2022-08-18T03:58:42;9.75;;;6.68;;
58950;SDS011;44730;53.158;6.398;2022-08-18T04:01:29;12.23;;;7.65;;
58950;SDS011;44730;53.158;6.398;2022-08-18T04:04:01;15.43;;;8.55;;
58950;SDS011;44730;53.158;6.398;2022-08-18T04:06:33;11.00;;;7.28;;
58950;SDS011;44730;53.158;6.398;2022-08-18T04:11:31;10.45;;;8.02;;
58950;SDS011;44730;53.158;6.398;2022-08-18T04:13:59;14.85;;;8.45;;
58950;SDS011;44730;53.158;6.398;2022-08-18T04:16:26;13.05;;;8.68;;
58950;SDS011;44730;53.158;6.398;2022-08-18T04:18:53;14.05;;;8.48;;
58950;SDS011;44730;53.158;6.398;2022-08-18T04:21:21;13.65;;;8.20;;
58950;SDS011;44730;53.158;6.398;2022-08-18T04:23:48;10.75;;;8.30;;
58950;SDS011;44730;53.158;6.398;2022-08-18T04:26:14;12.88;;;8.30;;
58950;SDS011;44730;53.158;6.398;2022-08-18T04:28:42;16.02;;;9.32;;
58950;SDS011;44730;53.158;6.398;2022-08-18T04:31:09;13.60;;;8.55;;
58950;SDS011;44730;53.158;6.398;2022-08-18T04:33:38;11.05;;;8.63;;
58950;SDS011;44730;53.158;6.398;2022-08-18T04:36:08;13.75;;;9.15;;
58950;SDS011;44730;53.158;6.398;2022-08-18T04:38:37;13.85;;;8.90;;
58950;SDS011;44730;53.158;6.398;2022-08-18T04:41:03;10.45;;;8.80;;
58950;SDS011;44730;53.158;6.398;2022-08-18T04:43:32;12.05;;;8.40;;
58950;SDS011;44730;53.158;6.398;2022-08-18T04:45:58;12.93;;;9.98;;
58950;SDS011;44730;53.158;6.398;2022-08-18T04:48:39;14.85;;;9.10;;
58950;SDS011;44730;53.158;6.398;2022-08-18T04:51:07;20.73;;;8.77;;
58950;SDS011;44730;53.158;6.398;2022-08-18T04:53:41;11.38;;;8.45;;
58950;SDS011;44730;53.158;6.398;2022-08-18T04:59:02;12.48;;;8.25;;
58950;SDS011;44730;53.158;6.398;2022-08-18T05:01:32;14.73;;;8.50;;
58950;SDS011;44730;53.158;6.398;2022-08-18T05:04:00;11.75;;;8.45;;
58950;SDS011;44730;53.158;6.398;2022-08-18T05:06:27;9.77;;;7.57;;
58950;SDS011;44730;53.158;6.398;2022-08-18T05:08:55;11.30;;;9.00;;
58950;SDS011;44730;53.158;6.398;2022-08-18T05:11:25;10.77;;;8.43;;
58950;SDS011;44730;53.158;6.398;2022-08-18T05:13:57;13.10;;;8.55;;
58950;SDS011;44730;53.158;6.398;2022-08-18T05:16:24;10.57;;;8.40;;
58950;SDS011;44730;53.158;6.398;2022-08-18T05:18:51;10.45;;;8.50;;
58950;SDS011;44730;53.158;6.398;2022-08-18T05:21:19;10.57;;;7.68;;
58950;SDS011;44730;53.158;6.398;2022-08-18T05:23:47;12.45;;;7.65;;
58950;SDS011;44730;53.158;6.398;2022-08-18T05:26:15;10.30;;;7.28;;
58950;SDS011;44730;53.158;6.398;2022-08-18T05:28:42;9.07;;;7.57;;
58950;SDS011;44730;53.158;6.398;2022-08-18T05:31:13;10.75;;;8.48;;
58950;SDS011;44730;53.158;6.398;2022-08-18T05:33:42;8.35;;;6.75;;
58950;SDS011;44730;53.158;6.398;2022-08-18T05:41:40;7.53;;;6.40;;
58950;SDS011;44730;53.158;6.398;2022-08-18T05:44:11;10.85;;;7.35;;
58950;SDS011;44730;53.158;6.398;2022-08-18T05:49:16;9.73;;;6.60;;
58950;SDS011;44730;53.158;6.398;2022-08-18T05:51:51;10.25;;;7.22;;
58950;SDS011;44730;53.158;6.398;2022-08-18T05:54:21;9.40;;;7.63;;
58950;SDS011;44730;53.158;6.398;2022-08-18T05:57:15;9.15;;;6.90;;
58950;SDS011;44730;53.158;6.398;2022-08-18T05:59:43;8.32;;;6.55;;
58950;SDS011;44730;53.158;6.398;2022-08-18T06:02:12;9.32;;;6.45;;
58950;SDS011;44730;53.158;6.398;2022-08-18T06:04:52;8.52;;;6.18;;
58950;SDS011;44730;53.158;6.398;2022-08-18T06:07:25;9.63;;;7.00;;
58950;SDS011;44730;53.158;6.398;2022-08-18T06:09:57;7.50;;;6.20;;
58950;SDS011;44730;53.158;6.398;2022-08-18T06:12:25;6.85;;;5.80;;
58950;SDS011;44730;53.158;6.398;2022-08-18T06:20:42;8.48;;;5.35;;
58950;SDS011;44730;53.158;6.398;2022-08-18T06:23:34;10.00;;;4.78;;
58950;SDS011;44730;53.158;6.398;2022-08-18T06:26:20;9.23;;;4.88;;
58950;SDS011;44730;53.158;6.398;2022-08-18T06:36:46;8.60;;;5.10;;
58950;SDS011;44730;53.158;6.398;2022-08-18T06:39:23;7.30;;;3.50;;
58950;SDS011;44730;53.158;6.398;2022-08-18T06:41:51;5.78;;;2.97;;
58950;SDS011;44730;53.158;6.398;2022-08-18T06:47:31;4.75;;;2.83;;
58950;SDS011;44730;53.158;6.398;2022-08-18T06:50:45;3.75;;;2.40;;
58950;SDS011;44730;53.158;6.398;2022-08-18T06:53:00;2.85;;;2.28;;
58950;SDS011;44730;53.158;6.398;2022-08-18T06:55:35;3.22;;;2.10;;
58950;SDS011;44730;53.158;6.398;2022-08-18T07:00:39;3.35;;;2.20;;
58950;SDS011;44730;53.158;6.398;2022-08-18T07:03:12;3.03;;;2.00;;
58950;SDS011;44730;53.158;6.398;2022-08-18T07:06:00;2.97;;;2.22;;
58950;SDS011;44730;53.158;6.398;2022-08-18T07:08:36;5.50;;;2.30;;
58950;SDS011;44730;53.158;6.398;2022-08-18T07:11:12;3.17;;;2.47;;
58950;SDS011;44730;53.158;6.398;2022-08-18T07:13:39;3.13;;;2.50;;
58950;SDS011;44730;53.158;6.398;2022-08-18T07:18:49;5.13;;;2.80;;
58950;SDS011;44730;53.158;6.398;2022-08-18T07:21:23;3.38;;;2.88;;
58950;SDS011;44730;53.158;6.398;2022-08-18T07:24:10;6.65;;;3.10;;
58950;SDS011;44730;53.158;6.398;2022-08-18T07:27:00;8.52;;;3.42;;
58950;SDS011;44730;53.158;6.398;2022-08-18T07:29:39;4.80;;;3.28;;
58950;SDS011;44730;53.158;6.398;2022-08-18T07:32:22;4.45;;;2.88;;
58950;SDS011;44730;53.158;6.398;2022-08-18T07:34:54;5.43;;;2.65;;
58950;SDS011;44730;53.158;6.398;2022-08-18T07:40:03;6.53;;;2.42;;
58950;SDS011;44730;53.158;6.398;2022-08-18T07:42:57;2.80;;;2.27;;
58950;SDS011;44730;53.158;6.398;2022-08-18T07:45:26;6.78;;;2.33;;
58950;SDS011;44730;53.158;6.398;2022-08-18T07:48:17;3.63;;;2.20;;
58950;SDS011;44730;53.158;6.398;2022-08-18T07:56:45;3.33;;;1.98;;
58950;SDS011;44730;53.158;6.398;2022-08-18T08:04:37;3.42;;;1.73;;
58950;SDS011;44730;53.158;6.398;2022-08-18T08:07:14;2.45;;;1.80;;
58950;SDS011;44730;53.158;6.398;2022-08-18T08:09:50;3.13;;;2.00;;
58950;SDS011;44730;53.158;6.398;2022-08-18T08:21:22;3.25;;;1.80;;
58950;SDS011;44730;53.158;6.398;2022-08-18T08:24:05;3.35;;;1.60;;
58950;SDS011;44730;53.158;6.398;2022-08-18T08:30:06;3.85;;;2.03;;
58950;SDS011;44730;53.158;6.398;2022-08-18T08:32:40;2.63;;;1.65;;
58950;SDS011;44730;53.158;6.398;2022-08-18T08:38:05;2.30;;;1.77;;
58950;SDS011;44730;53.158;6.398;2022-08-18T08:40:41;3.83;;;1.75;;
58950;SDS011;44730;53.158;6.398;2022-08-18T08:43:33;4.35;;;1.83;;
58950;SDS011;44730;53.158;6.398;2022-08-18T08:48:49;2.80;;;1.83;;
58950;SDS011;44730;53.158;6.398;2022-08-18T08:51:46;3.05;;;1.80;;
58950;SDS011;44730;53.158;6.398;2022-08-18T08:54:22;3.63;;;1.88;;
58950;SDS011;44730;53.158;6.398;2022-08-18T08:56:58;4.43;;;2.10;;
58950;SDS011;44730;53.158;6.398;2022-08-18T08:59:26;4.68;;;2.08;;
58950;SDS011;44730;53.158;6.398;2022-08-18T09:04:37;4.25;;;2.55;;
58950;SDS011;44730;53.158;6.398;2022-08-18T09:10:35;2.42;;;1.80;;
58950;SDS011;44730;53.158;6.398;2022-08-18T09:13:22;2.47;;;1.90;;
58950;SDS011;44730;53.158;6.398;2022-08-18T09:18:34;2.65;;;2.00;;
58950;SDS011;44730;53.158;6.398;2022-08-18T09:21:20;2.25;;;1.83;;
58950;SDS011;44730;53.158;6.398;2022-08-18T09:23:49;2.33;;;2.00;;
58950;SDS011;44730;53.158;6.398;2022-08-18T09:34:46;2.08;;;1.75;;
58950;SDS011;44730;53.158;6.398;2022-08-18T09:40:16;4.38;;;2.00;;
58950;SDS011;44730;53.158;6.398;2022-08-18T09:43:13;2.30;;;2.10;;
58950;SDS011;44730;53.158;6.398;2022-08-18T09:45:55;6.18;;;2.50;;
58950;SDS011;44730;53.158;6.398;2022-08-18T09:48:31;4.00;;;2.08;;
58950;SDS011;44730;53.158;6.398;2022-08-18T09:54:08;2.45;;;1.92;;
58950;SDS011;44730;53.158;6.398;2022-08-18T10:02:04;2.15;;;1.63;;
58950;SDS011;44730;53.158;6.398;2022-08-18T10:04:33;3.25;;;1.98;;
58950;SDS011;44730;53.158;6.398;2022-08-18T10:07:19;3.10;;;1.60;;
58950;SDS011;44730;53.158;6.398;2022-08-18T10:10:08;2.92;;;1.80;;
58950;SDS011;44730;53.158;6.398;2022-08-18T10:12:49;3.85;;;1.70;;
58950;SDS011;44730;53.158;6.398;2022-08-18T10:15:33;2.30;;;1.80;;
58950;SDS011;44730;53.158;6.398;2022-08-18T10:18:04;4.05;;;2.00;;
58950;SDS011;44730;53.158;6.398;2022-08-18T10:23:40;2.85;;;2.00;;
58950;SDS011;44730;53.158;6.398;2022-08-18T10:29:05;2.15;;;1.75;;
58950;SDS011;44730;53.158;6.398;2022-08-18T10:37:13;3.08;;;1.90;;
58950;SDS011;44730;53.158;6.398;2022-08-18T10:42:37;3.22;;;1.98;;
58950;SDS011;44730;53.158;6.398;2022-08-18T10:45:14;10.57;;;2.42;;
58950;SDS011;44730;53.158;6.398;2022-08-18T10:47:56;3.20;;;1.90;;
58950;SDS011;44730;53.158;6.398;2022-08-18T10:53:32;2.83;;;1.90;;
58950;SDS011;44730;53.158;6.398;2022-08-18T10:56:28;4.93;;;2.40;;
58950;SDS011;44730;53.158;6.398;2022-08-18T11:04:25;3.33;;;2.08;;
58950;SDS011;44730;53.158;6.398;2022-08-18T11:06:53;3.25;;;2.15;;
58950;SDS011;44730;53.158;6.398;2022-08-18T11:09:27;3.60;;;2.40;;
58950;SDS011;44730;53.158;6.398;2022-08-18T11:11:56;5.35;;;2.83;;
58950;SDS011;44730;53.158;6.398;2022-08-18T11:17:04;3.20;;;2.00;;
58950;SDS011;44730;53.158;6.398;2022-08-18T11:19:57;4.13;;;2.10;;
58950;SDS011;44730;53.158;6.398;2022-08-18T11:22:36;2.35;;;2.10;;
58950;SDS011;44730;53.158;6.398;2022-08-18T11:25:04;4.50;;;2.30;;
58950;SDS011;44730;53.158;6.398;2022-08-18T11:27:56;3.55;;;2.00;;
58950;SDS011;44730;53.158;6.398;2022-08-18T11:30:27;3.90;;;2.45;;
58950;SDS011;44730;53.158;6.398;2022-08-18T11:32:56;2.63;;;2.08;;
58950;SDS011;44730;53.158;6.398;2022-08-18T11:35:32;3.85;;;2.30;;
58950;SDS011;44730;53.158;6.398;2022-08-18T11:38:10;4.18;;;2.20;;
58950;SDS011;44730;53.158;6.398;2022-08-18T11:40:41;2.53;;;2.33;;
58950;SDS011;44730;53.158;6.398;2022-08-18T11:43:27;4.68;;;2.67;;
58950;SDS011;44730;53.158;6.398;2022-08-18T11:45:57;4.70;;;2.97;;
58950;SDS011;44730;53.158;6.398;2022-08-18T11:48:36;4.70;;;3.10;;
58950;SDS011;44730;53.158;6.398;2022-08-18T11:53:50;3.53;;;2.97;;
58950;SDS011;44730;53.158;6.398;2022-08-18T11:59:00;4.75;;;2.60;;
58950;SDS011;44730;53.158;6.398;2022-08-18T12:01:58;4.13;;;2.03;;
58950;SDS011;44730;53.158;6.398;2022-08-18T12:04:31;2.58;;;2.20;;
58950;SDS011;44730;53.158;6.398;2022-08-18T12:09:45;2.95;;;2.42;;
58950;SDS011;44730;53.158;6.398;2022-08-18T12:15:01;2.30;;;2.10;;
58950;SDS011;44730;53.158;6.398;2022-08-18T12:17:36;3.38;;;1.90;;
58950;SDS011;44730;53.158;6.398;2022-08-18T12:20:02;2.97;;;2.10;;
58950;SDS011;44730;53.158;6.398;2022-08-18T12:22:33;2.83;;;2.33;;
58950;SDS011;44730;53.158;6.398;2022-08-18T12:25:00;3.08;;;2.10;;
58950;SDS011;44730;53.158;6.398;2022-08-18T12:27:28;3.53;;;2.10;;
58950;SDS011;44730;53.158;6.398;2022-08-18T12:29:56;2.63;;;1.85;;
58950;SDS011;44730;53.158;6.398;2022-08-18T12:32:26;2.95;;;2.35;;
58950;SDS011;44730;53.158;6.398;2022-08-18T12:34:54;2.88;;;2.30;;
58950;SDS011;44730;53.158;6.398;2022-08-18T12:37:22;2.80;;;1.98;;
58950;SDS011;44730;53.158;6.398;2022-08-18T12:39:50;2.97;;;2.35;;
58950;SDS011;44730;53.158;6.398;2022-08-18T12:42:17;39.60;;;9.15;;
58950;SDS011;44730;53.158;6.398;2022-08-18T12:44:43;2.85;;;2.30;;
58950;SDS011;44730;53.158;6.398;2022-08-18T12:47:21;3.40;;;2.40;;
58950;SDS011;44730;53.158;6.398;2022-08-18T12:49:49;2.63;;;2.20;;
58950;SDS011;44730;53.158;6.398;2022-08-18T12:52:14;2.25;;;2.03;;
58950;SDS011;44730;53.158;6.398;2022-08-18T12:54:42;2.85;;;2.10;;
58950;SDS011;44730;53.158;6.398;2022-08-18T12:57:12;2.92;;;2.20;;
58950;SDS011;44730;53.158;6.398;2022-08-18T12:59:46;2.33;;;2.13;;
58950;SDS011;44730;53.158;6.398;2022-08-18T13:02:11;3.63;;;2.28;;
58950;SDS011;44730;53.158;6.398;2022-08-18T13:04:37;3.25;;;2.05;;
58950;SDS011;44730;53.158;6.398;2022-08-18T13:07:04;2.30;;;1.90;;
58950;SDS011;44730;53.158;6.398;2022-08-18T13:09:32;4.05;;;2.60;;
58950;SDS011;44730;53.158;6.398;2022-08-18T13:12:00;3.47;;;2.33;;
58950;SDS011;44730;53.158;6.398;2022-08-18T13:14:26;3.20;;;2.40;;
58950;SDS011;44730;53.158;6.398;2022-08-18T13:16:53;2.63;;;2.42;;
58950;SDS011;44730;53.158;6.398;2022-08-18T13:19:19;2.85;;;2.30;;
58950;SDS011;44730;53.158;6.398;2022-08-18T13:21:45;3.63;;;2.35;;
58950;SDS011;44730;53.158;6.398;2022-08-18T13:24:13;4.95;;;2.17;;
58950;SDS011;44730;53.158;6.398;2022-08-18T13:26:43;3.15;;;2.20;;
58950;SDS011;44730;53.158;6.398;2022-08-18T13:29:10;3.95;;;2.10;;
58950;SDS011;44730;53.158;6.398;2022-08-18T13:31:36;2.20;;;2.00;;
58950;SDS011;44730;53.158;6.398;2022-08-18T13:34:05;6.85;;;2.63;;
58950;SDS011;44730;53.158;6.398;2022-08-18T13:36:33;2.30;;;2.10;;
58950;SDS011;44730;53.158;6.398;2022-08-18T13:41:42;2.42;;;2.17;;
58950;SDS011;44730;53.158;6.398;2022-08-18T13:44:10;4.85;;;2.30;;
58950;SDS011;44730;53.158;6.398;2022-08-18T13:46:37;2.50;;;2.30;;
58950;SDS011;44730;53.158;6.398;2022-08-18T13:49:09;2.40;;;2.20;;
58950;SDS011;44730;53.158;6.398;2022-08-18T13:51:46;3.03;;;2.22;;
58950;SDS011;44730;53.158;6.398;2022-08-18T13:54:20;4.40;;;2.25;;
58950;SDS011;44730;53.158;6.398;2022-08-18T13:56:47;2.42;;;1.95;;
58950;SDS011;44730;53.158;6.398;2022-08-18T13:59:15;2.95;;;1.98;;
58950;SDS011;44730;53.158;6.398;2022-08-18T14:01:41;3.83;;;2.30;;
58950;SDS011;44730;53.158;6.398;2022-08-18T14:04:11;3.42;;;2.35;;
58950;SDS011;44730;53.158;6.398;2022-08-18T14:06:39;3.75;;;2.35;;
58950;SDS011;44730;53.158;6.398;2022-08-18T14:09:05;3.25;;;2.22;;
58950;SDS011;44730;53.158;6.398;2022-08-18T14:11:31;3.65;;;2.55;;
58950;SDS011;44730;53.158;6.398;2022-08-18T14:13:59;2.50;;;2.30;;
58950;SDS011;44730;53.158;6.398;2022-08-18T14:16:25;3.15;;;2.17;;
58950;SDS011;44730;53.158;6.398;2022-08-18T14:18:51;8.48;;;2.47;;
58950;SDS011;44730;53.158;6.398;2022-08-18T14:21:40;2.30;;;1.98;;
58950;SDS011;44730;53.158;6.398;2022-08-18T14:24:26;2.58;;;2.00;;
58950;SDS011;44730;53.158;6.398;2022-08-18T14:27:11;3.67;;;2.60;;
58950;SDS011;44730;53.158;6.398;2022-08-18T14:29:37;2.75;;;2.47;;
58950;SDS011;44730;53.158;6.398;2022-08-18T14:32:03;2.67;;;2.22;;
58950;SDS011;44730;53.158;6.398;2022-08-18T14:34:30;2.20;;;2.00;;
58950;SDS011;44730;53.158;6.398;2022-08-18T14:36:56;2.47;;;2.28;;
58950;SDS011;44730;53.158;6.398;2022-08-18T14:39:22;3.35;;;2.17;;
58950;SDS011;44730;53.158;6.398;2022-08-18T14:41:47;2.55;;;2.22;;
58950;SDS011;44730;53.158;6.398;2022-08-18T14:44:13;2.80;;;2.50;;
58950;SDS011;44730;53.158;6.398;2022-08-18T14:46:40;3.30;;;2.55;;
58950;SDS011;44730;53.158;6.398;2022-08-18T14:49:10;2.97;;;2.53;;
58950;SDS011;44730;53.158;6.398;2022-08-18T14:51:36;3.47;;;2.50;;
58950;SDS011;44730;53.158;6.398;2022-08-18T14:54:07;2.83;;;2.50;;
58950;SDS011;44730;53.158;6.398;2022-08-18T14:56:34;2.72;;;2.30;;
58950;SDS011;44730;53.158;6.398;2022-08-18T14:59:04;3.78;;;2.35;;
58950;SDS011;44730;53.158;6.398;2022-08-18T15:01:32;2.53;;;2.13;;
58950;SDS011;44730;53.158;6.398;2022-08-18T15:03:59;3.88;;;2.10;;
58950;SDS011;44730;53.158;6.398;2022-08-18T15:06:25;2.92;;;2.40;;
58950;SDS011;44730;53.158;6.398;2022-08-18T15:08:51;2.78;;;2.58;;
58950;SDS011;44730;53.158;6.398;2022-08-18T15:11:17;2.22;;;2.03;;
58950;SDS011;44730;53.158;6.398;2022-08-18T15:13:43;2.35;;;2.15;;
58950;SDS011;44730;53.158;6.398;2022-08-18T15:16:10;4.68;;;2.22;;
58950;SDS011;44730;53.158;6.398;2022-08-18T15:18:45;3.88;;;2.45;;
58950;SDS011;44730;53.158;6.398;2022-08-18T15:21:12;3.35;;;2.53;;
58950;SDS011;44730;53.158;6.398;2022-08-18T15:23:58;2.63;;;2.15;;
58950;SDS011;44730;53.158;6.398;2022-08-18T15:26:42;3.78;;;2.35;;
58950;SDS011;44730;53.158;6.398;2022-08-18T15:29:08;5.43;;;2.20;;
58950;SDS011;44730;53.158;6.398;2022-08-18T15:31:35;2.60;;;2.38;;
58950;SDS011;44730;53.158;6.398;2022-08-18T15:34:03;7.35;;;2.50;;
58950;SDS011;44730;53.158;6.398;2022-08-18T15:36:29;2.40;;;2.10;;
58950;SDS011;44730;53.158;6.398;2022-08-18T15:38:58;2.30;;;2.10;;
58950;SDS011;44730;53.158;6.398;2022-08-18T15:41:31;2.70;;;2.50;;
58950;SDS011;44730;53.158;6.398;2022-08-18T15:44:07;2.40;;;1.97;;
58950;SDS011;44730;53.158;6.398;2022-08-18T15:46:35;3.70;;;2.10;;
58950;SDS011;44730;53.158;6.398;2022-08-18T15:49:02;2.85;;;2.28;;
58950;SDS011;44730;53.158;6.398;2022-08-18T15:51:32;2.53;;;2.25;;
58950;SDS011;44730;53.158;6.398;2022-08-18T15:53:59;4.50;;;2.40;;
58950;SDS011;44730;53.158;6.398;2022-08-18T15:56:25;2.60;;;2.40;;
58950;SDS011;44730;53.158;6.398;2022-08-18T15:58:52;2.88;;;2.40;;
58950;SDS011;44730;53.158;6.398;2022-08-18T16:01:19;2.90;;;2.40;;
58950;SDS011;44730;53.158;6.398;2022-08-18T16:03:46;2.58;;;2.30;;
58950;SDS011;44730;53.158;6.398;2022-08-18T16:06:21;2.30;;;2.10;;
58950;SDS011;44730;53.158;6.398;2022-08-18T16:08:52;3.33;;;2.88;;
58950;SDS011;44730;53.158;6.398;2022-08-18T16:11:18;2.65;;;2.38;;
58950;SDS011;44730;53.158;6.398;2022-08-18T16:13:46;2.85;;;2.10;;
58950;SDS011;44730;53.158;6.398;2022-08-18T16:16:18;2.58;;;2.38;;
58950;SDS011;44730;53.158;6.398;2022-08-18T16:21:13;3.30;;;2.50;;
58950;SDS011;44730;53.158;6.398;2022-08-18T16:23:43;3.70;;;2.35;;
58950;SDS011;44730;53.158;6.398;2022-08-18T16:26:11;2.92;;;2.38;;
58950;SDS011;44730;53.158;6.398;2022-08-18T16:28:40;3.53;;;2.70;;
58950;SDS011;44730;53.158;6.398;2022-08-18T16:31:07;4.57;;;2.40;;
58950;SDS011;44730;53.158;6.398;2022-08-18T16:33:34;2.53;;;2.33;;
58950;SDS011;44730;53.158;6.398;2022-08-18T16:36:01;2.88;;;2.45;;
58950;SDS011;44730;53.158;6.398;2022-08-18T16:38:32;2.65;;;2.45;;
58950;SDS011;44730;53.158;6.398;2022-08-18T16:41:04;4.28;;;2.80;;
58950;SDS011;44730;53.158;6.398;2022-08-18T16:43:33;4.28;;;2.90;;
58950;SDS011;44730;53.158;6.398;2022-08-18T16:46:03;6.28;;;2.97;;
58950;SDS011;44730;53.158;6.398;2022-08-18T16:48:35;4.85;;;2.80;;
58950;SDS011;44730;53.158;6.398;2022-08-18T16:51:01;4.70;;;2.72;;
58950;SDS011;44730;53.158;6.398;2022-08-18T16:53:26;3.55;;;2.33;;
58950;SDS011;44730;53.158;6.398;2022-08-18T16:55:52;3.95;;;2.70;;
58950;SDS011;44730;53.158;6.398;2022-08-18T16:58:18;4.68;;;2.53;;
58950;SDS011;44730;53.158;6.398;2022-08-18T17:01:02;4.07;;;3.10;;
58950;SDS011;44730;53.158;6.398;2022-08-18T17:03:46;2.58;;;2.38;;
58950;SDS011;44730;53.158;6.398;2022-08-18T17:06:32;4.30;;;2.80;;
58950;SDS011;44730;53.158;6.398;2022-08-18T17:08:59;4.80;;;2.97;;
58950;SDS011;44730;53.158;6.398;2022-08-18T17:11:26;3.13;;;2.50;;
58950;SDS011;44730;53.158;6.398;2022-08-18T17:13:53;3.13;;;2.63;;
58950;SDS011;44730;53.158;6.398;2022-08-18T17:16:21;4.20;;;2.92;;
58950;SDS011;44730;53.158;6.398;2022-08-18T17:18:51;4.15;;;2.67;;
58950;SDS011;44730;53.158;6.398;2022-08-18T17:21:19;3.28;;;2.88;;
58950;SDS011;44730;53.158;6.398;2022-08-18T17:23:49;4.93;;;2.85;;
58950;SDS011;44730;53.158;6.398;2022-08-18T17:29:09;4.32;;;3.30;;
58950;SDS011;44730;53.158;6.398;2022-08-18T17:31:53;4.68;;;3.10;;
58950;SDS011;44730;53.158;6.398;2022-08-18T17:34:25;5.18;;;3.30;;
58950;SDS011;44730;53.158;6.398;2022-08-18T17:37:00;4.20;;;3.28;;
58950;SDS011;44730;53.158;6.398;2022-08-18T17:39:30;4.25;;;2.97;;